createdAt,value
2018-05-09T00:00:59.335Z,17.26
2018-05-09T00:01:59.334Z,17.31
2018-05-09T00:02:59.341Z,17.34
2018-05-09T00:03:59.339Z,17.33
2018-05-09T00:04:59.342Z,17.31
2018-05-09T00:05:59.341Z,17.34
2018-05-09T00:06:59.334Z,17.28
2018-05-09T00:07:59.334Z,17.26
2018-05-09T00:08:59.335Z,17.23
2018-05-09T00:09:59.342Z,17.37
2018-05-09T00:10:59.370Z,17.40
2018-05-09T00:11:59.404Z,17.33
2018-05-09T00:12:59.336Z,17.44
2018-05-09T00:13:59.349Z,17.43
2018-05-09T00:14:59.335Z,17.41
2018-05-09T00:15:59.335Z,17.51
2018-05-09T00:16:59.334Z,17.44
2018-05-09T00:17:59.341Z,17.52
2018-05-09T00:18:59.339Z,17.33
2018-05-09T00:19:59.331Z,17.37
2018-05-09T00:20:59.334Z,17.36
2018-05-09T00:21:59.343Z,17.34
2018-05-09T00:22:59.340Z,17.40
2018-05-09T00:23:59.341Z,17.33
2018-05-09T00:24:59.356Z,17.41
2018-05-09T00:25:59.343Z,17.38
2018-05-09T00:26:59.335Z,17.31
2018-05-09T00:27:59.335Z,17.41
2018-05-09T00:28:59.336Z,17.46
2018-05-09T00:29:59.336Z,17.51
2018-05-09T00:30:59.342Z,17.62
2018-05-09T00:31:59.337Z,17.64
2018-05-09T00:32:59.343Z,17.64
2018-05-09T00:33:59.335Z,17.75
2018-05-09T00:34:59.341Z,17.71
2018-05-09T00:35:59.336Z,17.71
2018-05-09T00:36:59.338Z,17.59
2018-05-09T00:37:59.336Z,17.54
2018-05-09T00:38:59.337Z,17.43
2018-05-09T00:39:59.342Z,17.43
2018-05-09T00:40:59.337Z,17.46
2018-05-09T00:41:59.337Z,17.43
2018-05-09T00:42:59.355Z,17.44
2018-05-09T00:43:59.332Z,17.51
2018-05-09T00:44:59.337Z,17.62
2018-05-09T00:45:59.337Z,17.51
2018-05-09T00:46:59.338Z,17.40
2018-05-09T00:47:59.335Z,17.49
2018-05-09T00:48:59.337Z,17.41
2018-05-09T00:49:59.337Z,17.40
2018-05-09T00:50:59.337Z,17.46
2018-05-09T00:51:59.331Z,17.33
2018-05-09T00:52:59.336Z,17.23
2018-05-09T00:53:59.336Z,17.37
2018-05-09T00:54:59.337Z,17.46
2018-05-09T00:55:59.336Z,17.33
2018-05-09T00:56:59.340Z,17.34
2018-05-09T00:57:59.419Z,17.33
2018-05-09T00:58:59.332Z,17.19
2018-05-09T00:59:59.344Z,17.23
2018-05-09T01:00:59.338Z,17.19
2018-05-09T01:01:59.336Z,17.30
2018-05-09T01:02:59.337Z,17.36
2018-05-09T01:03:59.335Z,17.23
2018-05-09T01:04:59.336Z,17.21
2018-05-09T01:05:59.336Z,17.30
2018-05-09T01:06:59.346Z,17.30
2018-05-09T01:07:59.336Z,17.26
2018-05-09T01:08:59.360Z,17.19
2018-05-09T01:09:59.334Z,17.23
2018-05-09T01:10:59.336Z,17.36
2018-05-09T01:11:59.346Z,17.21
2018-05-09T01:12:59.337Z,17.33
2018-05-09T01:13:59.335Z,17.16
2018-05-09T01:14:59.335Z,17.23
2018-05-09T01:15:59.343Z,17.18
2018-05-09T01:16:59.338Z,17.18
2018-05-09T01:17:59.333Z,17.21
2018-05-09T01:18:59.339Z,17.08
2018-05-09T01:19:59.336Z,17.04
2018-05-09T01:20:59.340Z,17.12
2018-05-09T01:21:59.345Z,17.08
2018-05-09T01:22:59.334Z,17.00
2018-05-09T01:23:59.340Z,16.91
2018-05-09T01:24:59.363Z,16.97
2018-05-09T01:25:59.340Z,16.98
2018-05-09T01:26:59.336Z,17.07
2018-05-09T01:27:59.340Z,17.08
2018-05-09T01:28:59.338Z,17.04
2018-05-09T01:29:59.342Z,17.03
2018-05-09T01:30:59.339Z,17.08
2018-05-09T01:31:59.343Z,17.03
2018-05-09T01:32:59.337Z,16.97
2018-05-09T01:33:59.338Z,16.86
2018-05-09T01:34:59.330Z,16.79
2018-05-09T01:35:59.337Z,16.86
2018-05-09T01:36:59.332Z,16.76
2018-05-09T01:37:59.339Z,16.79
2018-05-09T01:38:59.337Z,16.71
2018-05-09T01:39:59.340Z,16.96
2018-05-09T01:40:59.331Z,16.91
2018-05-09T01:41:59.332Z,16.86
2018-05-09T01:42:59.329Z,16.78
2018-05-09T01:43:59.334Z,16.79
2018-05-09T01:44:59.331Z,16.70
2018-05-09T01:45:59.329Z,16.71
2018-05-09T01:46:59.334Z,16.68
2018-05-09T01:47:59.328Z,16.75
2018-05-09T01:48:59.329Z,16.75
2018-05-09T01:49:59.328Z,16.70
2018-05-09T01:50:59.326Z,16.63
2018-05-09T01:51:59.338Z,16.58
2018-05-09T01:52:59.338Z,16.63
2018-05-09T01:53:59.332Z,16.67
2018-05-09T01:54:59.369Z,16.67
2018-05-09T01:55:59.326Z,16.70
2018-05-09T01:56:59.321Z,16.75
2018-05-09T01:57:59.324Z,16.78
2018-05-09T01:58:59.331Z,16.68
2018-05-09T01:59:59.324Z,16.70
2018-05-09T02:00:59.324Z,16.63
2018-05-09T02:01:59.321Z,16.66
2018-05-09T02:02:59.349Z,16.58
2018-05-09T02:03:59.319Z,16.67
2018-05-09T02:04:59.319Z,16.58
2018-05-09T02:05:59.385Z,16.61
2018-05-09T02:06:59.322Z,16.64
2018-05-09T02:07:59.321Z,16.52
2018-05-09T02:08:59.321Z,16.57
2018-05-09T02:09:59.322Z,16.45
2018-05-09T02:10:59.316Z,16.45
2018-05-09T02:11:59.316Z,16.39
2018-05-09T02:12:59.313Z,16.23
2018-05-09T02:13:59.324Z,16.28
2018-05-09T02:14:59.319Z,16.28
2018-05-09T02:15:59.313Z,16.24
2018-05-09T02:16:59.313Z,16.24
2018-05-09T02:17:59.316Z,16.23
2018-05-09T02:18:59.312Z,16.27
2018-05-09T02:19:59.313Z,16.20
2018-05-09T02:20:59.316Z,16.27
2018-05-09T02:21:59.311Z,16.23
2018-05-09T02:22:59.312Z,16.15
2018-05-09T02:23:59.396Z,16.20
2018-05-09T02:24:59.309Z,16.15
2018-05-09T02:25:59.317Z,16.20
2018-05-09T02:26:59.319Z,16.07
2018-05-09T02:27:59.307Z,16.07
2018-05-09T02:28:59.307Z,16.04
2018-05-09T02:29:59.307Z,16.11
2018-05-09T02:30:59.320Z,16.08
2018-05-09T02:31:59.306Z,16.04
2018-05-09T02:32:59.307Z,15.92
2018-05-09T02:33:59.324Z,15.93
2018-05-09T02:34:59.304Z,15.92
2018-05-09T02:35:59.303Z,15.90
2018-05-09T02:36:59.307Z,15.87
2018-05-09T02:37:59.308Z,15.94
2018-05-09T02:38:59.302Z,15.97
2018-05-09T02:39:59.301Z,15.97
2018-05-09T02:40:59.301Z,15.76
2018-05-09T02:41:59.300Z,15.80
2018-05-09T02:42:59.299Z,15.75
2018-05-09T02:43:59.298Z,15.78
2018-05-09T02:44:59.299Z,15.80
2018-05-09T02:45:59.299Z,15.75
2018-05-09T02:46:59.322Z,15.72
2018-05-09T02:47:59.307Z,15.74
2018-05-09T02:48:59.298Z,15.59
2018-05-09T02:49:59.423Z,15.62
2018-05-09T02:50:59.293Z,15.49
2018-05-09T02:51:59.304Z,15.60
2018-05-09T02:52:59.294Z,15.57
2018-05-09T02:53:59.293Z,15.47
2018-05-09T02:54:59.289Z,15.44
2018-05-09T02:55:59.292Z,15.49
2018-05-09T02:56:59.289Z,15.39
2018-05-09T02:57:59.296Z,15.36
2018-05-09T02:58:59.293Z,15.43
2018-05-09T02:59:59.290Z,15.51
2018-05-09T03:00:59.290Z,15.41
2018-05-09T03:01:59.289Z,15.36
2018-05-09T03:02:59.290Z,15.25
2018-05-09T03:03:59.286Z,15.23
2018-05-09T03:04:59.281Z,15.14
2018-05-09T03:05:59.284Z,15.49
2018-05-09T03:06:59.282Z,15.60
2018-05-09T03:07:59.283Z,15.57
2018-05-09T03:08:59.281Z,15.57
2018-05-09T03:09:59.283Z,15.56
2018-05-09T03:10:59.280Z,15.60
2018-05-09T03:11:59.280Z,15.43
2018-05-09T03:12:59.277Z,15.43
2018-05-09T03:13:59.281Z,15.46
2018-05-09T03:14:59.294Z,15.36
2018-05-09T03:15:59.278Z,15.41
2018-05-09T03:16:59.276Z,15.41
2018-05-09T03:17:59.273Z,15.60
2018-05-09T03:18:59.272Z,15.64
2018-05-09T03:19:59.269Z,15.57
2018-05-09T03:20:59.271Z,15.51
2018-05-09T03:21:59.269Z,15.59
2018-05-09T03:22:59.269Z,15.60
2018-05-09T03:23:59.268Z,15.75
2018-05-09T03:24:59.271Z,15.62
2018-05-09T03:25:59.268Z,15.67
2018-05-09T03:26:59.266Z,15.67
2018-05-09T03:27:59.265Z,15.78
2018-05-09T03:28:59.267Z,15.75
2018-05-09T03:29:59.264Z,15.69
2018-05-09T03:30:59.263Z,15.69
2018-05-09T03:31:59.267Z,15.67
2018-05-09T03:32:59.264Z,15.65
2018-05-09T03:33:59.257Z,15.76
2018-05-09T03:34:59.257Z,15.74
2018-05-09T03:35:59.256Z,15.67
2018-05-09T03:36:59.258Z,15.72
2018-05-09T03:37:59.259Z,15.60
2018-05-09T03:38:59.260Z,15.75
2018-05-09T03:39:59.253Z,15.69
2018-05-09T03:40:59.253Z,15.78
2018-05-09T03:41:59.253Z,15.74
2018-05-09T03:42:59.262Z,15.68
2018-05-09T03:43:59.250Z,15.69
2018-05-09T03:44:59.249Z,15.76
2018-05-09T03:45:59.249Z,15.78
2018-05-09T03:46:59.246Z,15.69
2018-05-09T03:47:59.246Z,15.65
2018-05-09T03:48:59.242Z,15.64
2018-05-09T03:49:59.247Z,15.74
2018-05-09T03:50:59.244Z,15.68
2018-05-09T03:51:59.243Z,15.57
2018-05-09T03:52:59.244Z,15.65
2018-05-09T03:53:59.241Z,15.54
2018-05-09T03:54:59.241Z,15.69
2018-05-09T03:55:59.240Z,15.57
2018-05-09T03:56:59.241Z,15.67
2018-05-09T03:57:59.238Z,15.71
2018-05-09T03:58:59.240Z,15.72
2018-05-09T03:59:59.243Z,15.69
2018-05-09T04:00:59.239Z,15.68
2018-05-09T04:01:59.235Z,15.60
2018-05-09T04:02:59.230Z,15.69
2018-05-09T04:03:59.245Z,15.72
2018-05-09T04:04:59.232Z,15.67
2018-05-09T04:05:59.226Z,15.71
2018-05-09T04:06:59.230Z,15.68
2018-05-09T04:07:59.231Z,15.78
2018-05-09T04:08:59.227Z,15.72
2018-05-09T04:09:59.232Z,15.76
2018-05-09T04:10:59.296Z,15.74
2018-05-09T04:11:59.226Z,15.72
2018-05-09T04:12:59.226Z,15.78
2018-05-09T04:13:59.225Z,15.84
2018-05-09T04:14:59.224Z,15.82
2018-05-09T04:15:59.221Z,15.82
2018-05-09T04:16:59.220Z,15.92
2018-05-09T04:17:59.221Z,15.86
2018-05-09T04:18:59.223Z,16.01
2018-05-09T04:19:59.219Z,16.08
2018-05-09T04:20:59.292Z,16.04
2018-05-09T04:21:59.220Z,16.09
2018-05-09T04:22:59.221Z,16.15
2018-05-09T04:23:59.223Z,16.12
2018-05-09T04:24:59.218Z,16.15
2018-05-09T04:25:59.216Z,16.20
2018-05-09T04:26:59.216Z,16.23
2018-05-09T04:27:59.216Z,16.28
2018-05-09T04:28:59.215Z,16.41
2018-05-09T04:29:59.214Z,16.50
2018-05-09T04:30:59.222Z,16.91
2018-05-09T04:31:59.214Z,17.14
2018-05-09T04:32:59.215Z,17.66
2018-05-09T04:33:59.213Z,18.20
2018-05-09T04:34:59.215Z,18.51
2018-05-09T04:35:59.212Z,18.88
2018-05-09T04:36:59.213Z,19.14
2018-05-09T04:37:59.214Z,19.40
2018-05-09T04:38:59.214Z,19.29
2018-05-09T04:39:59.213Z,19.25
2018-05-09T04:40:59.211Z,19.43
2018-05-09T04:41:59.299Z,19.66
2018-05-09T04:42:59.212Z,19.80
2018-05-09T04:43:59.214Z,19.83
2018-05-09T04:44:59.208Z,19.69
2018-05-09T04:45:59.218Z,19.40
2018-05-09T04:46:59.223Z,19.07
2018-05-09T04:47:59.213Z,19.25
2018-05-09T04:48:59.214Z,20.02
2018-05-09T04:49:59.216Z,20.48
2018-05-09T04:50:59.219Z,20.73
2018-05-09T04:51:59.215Z,20.62
2018-05-09T04:52:59.214Z,20.66
2018-05-09T04:53:59.233Z,20.91
2018-05-09T04:54:59.225Z,21.40
2018-05-09T04:55:59.215Z,21.43
2018-05-09T04:56:59.216Z,21.92
2018-05-09T04:57:59.215Z,22.28
2018-05-09T04:58:59.217Z,22.65
2018-05-09T04:59:59.221Z,22.42
2018-05-09T05:00:59.223Z,22.37
2018-05-09T05:01:59.220Z,22.58
2018-05-09T05:02:59.222Z,22.92
2018-05-09T05:03:59.222Z,23.16
2018-05-09T05:04:59.225Z,23.51
2018-05-09T05:05:59.227Z,23.43
2018-05-09T05:06:59.297Z,23.69
2018-05-09T05:07:59.233Z,23.54
2018-05-09T05:08:59.227Z,23.91
2018-05-09T05:09:59.241Z,23.70
2018-05-09T05:10:59.238Z,23.53
2018-05-09T05:11:59.237Z,24.03
2018-05-09T05:12:59.239Z,24.39
2018-05-09T05:13:59.244Z,23.97
2018-05-09T05:14:59.240Z,23.23
2018-05-09T05:15:59.243Z,23.27
2018-05-09T05:16:59.248Z,23.53
2018-05-09T05:17:59.246Z,23.63
2018-05-09T05:18:59.249Z,23.78
2018-05-09T05:19:59.248Z,23.90
2018-05-09T05:20:59.251Z,23.88
2018-05-09T05:21:59.253Z,23.63
2018-05-09T05:22:59.258Z,23.54
2018-05-09T05:23:59.260Z,23.63
2018-05-09T05:24:59.262Z,23.36
2018-05-09T05:25:59.266Z,22.79
2018-05-09T05:26:59.358Z,22.47
2018-05-09T05:27:59.268Z,22.54
2018-05-09T05:28:59.274Z,22.20
2018-05-09T05:29:59.279Z,21.82
2018-05-09T05:30:59.280Z,21.77
2018-05-09T05:31:59.280Z,22.12
2018-05-09T05:32:59.286Z,23.19
2018-05-09T05:33:59.287Z,21.99
2018-05-09T05:34:59.332Z,21.67
2018-05-09T05:35:59.290Z,21.84
2018-05-09T05:36:59.295Z,21.49
2018-05-09T05:37:59.297Z,21.65
2018-05-09T05:38:59.299Z,21.61
2018-05-09T05:39:59.301Z,22.10
2018-05-09T05:40:59.304Z,21.69
2018-05-09T05:41:59.308Z,21.98
2018-05-09T05:42:59.309Z,22.39
2018-05-09T05:43:59.314Z,22.12
2018-05-09T05:44:59.381Z,22.67
2018-05-09T05:45:59.321Z,23.42
2018-05-09T05:46:59.320Z,23.19
2018-05-09T05:47:59.320Z,22.76
2018-05-09T05:48:59.328Z,22.39
2018-05-09T05:49:59.333Z,22.28
2018-05-09T05:50:59.334Z,21.68
2018-05-09T05:51:59.356Z,22.20
2018-05-09T05:52:59.337Z,22.07
2018-05-09T05:53:59.341Z,21.56
2018-05-09T05:54:59.344Z,21.56
2018-05-09T05:55:59.372Z,22.07
2018-05-09T05:56:59.350Z,22.65
2018-05-09T05:57:59.352Z,22.51
2018-05-09T05:58:59.356Z,22.55
2018-05-09T05:59:59.356Z,21.77
2018-05-09T06:00:59.362Z,21.44
2018-05-09T06:01:59.364Z,21.94
2018-05-09T06:02:59.370Z,22.62
2018-05-09T06:03:59.371Z,23.58
2018-05-09T06:04:59.383Z,24.20
2018-05-09T06:05:59.376Z,23.84
2018-05-09T06:06:59.382Z,24.09
2018-05-09T06:07:59.480Z,24.93
2018-05-09T06:08:59.386Z,24.12
2018-05-09T06:09:59.428Z,22.92
2018-05-09T06:10:59.392Z,22.51
2018-05-09T06:11:59.390Z,23.33
2018-05-09T06:12:59.400Z,23.75
2018-05-09T06:13:59.407Z,24.32
2018-05-09T06:14:59.405Z,25.05
2018-05-09T06:15:59.418Z,24.93
2018-05-09T06:16:59.412Z,24.99
2018-05-09T06:17:59.419Z,25.17
2018-05-09T06:18:59.441Z,25.25
2018-05-09T06:19:59.440Z,24.52
2018-05-09T06:20:59.424Z,24.37
2018-05-09T06:21:59.429Z,24.65
2018-05-09T06:22:59.435Z,24.91
2018-05-09T06:23:59.446Z,24.65
2018-05-09T06:24:59.454Z,24.52
2018-05-09T06:25:59.457Z,24.25
2018-05-09T06:26:59.451Z,25.05
2018-05-09T06:27:59.455Z,24.55
2018-05-09T06:28:59.460Z,24.30
2018-05-09T06:29:59.470Z,23.98
2018-05-09T06:30:59.543Z,24.18
2018-05-09T06:31:59.480Z,24.34
2018-05-09T06:32:59.479Z,24.49
2018-05-09T06:33:59.483Z,23.94
2018-05-09T06:34:59.488Z,23.19
2018-05-09T06:35:59.494Z,22.95
2018-05-09T06:36:59.497Z,23.32
2018-05-09T06:37:59.503Z,23.19
2018-05-09T06:38:59.508Z,23.17
2018-05-09T06:39:59.513Z,23.55
2018-05-09T06:40:59.516Z,24.02
2018-05-09T06:41:59.518Z,23.69
2018-05-09T06:42:59.523Z,24.15
2018-05-09T06:43:59.527Z,24.88
2018-05-09T06:44:59.533Z,24.85
2018-05-09T06:45:59.537Z,24.35
2018-05-09T06:46:59.545Z,24.27
2018-05-09T06:47:59.554Z,25.38
2018-05-09T06:48:59.551Z,24.47
2018-05-09T06:49:59.683Z,23.60
2018-05-09T06:50:59.560Z,23.66
2018-05-09T06:51:59.640Z,23.31
2018-05-09T06:52:59.571Z,23.38
2018-05-09T06:53:59.575Z,23.10
2018-05-09T06:54:59.579Z,23.16
2018-05-09T06:55:59.586Z,23.63
2018-05-09T06:56:59.593Z,24.39
2018-05-09T06:57:59.596Z,23.91
2018-05-09T06:58:59.659Z,23.79
2018-05-09T06:59:59.615Z,24.57
2018-05-09T07:00:59.618Z,25.47
2018-05-09T07:01:59.622Z,26.44
2018-05-09T07:02:59.627Z,26.81
2018-05-09T07:03:59.629Z,25.70
2018-05-09T07:04:59.637Z,25.83
2018-05-09T07:05:59.640Z,26.36
2018-05-09T07:06:59.643Z,26.28
2018-05-09T07:07:59.651Z,26.20
2018-05-09T07:08:59.655Z,26.09
2018-05-09T07:09:59.667Z,26.18
2018-05-09T07:10:59.667Z,25.99
2018-05-09T07:11:59.676Z,25.18
2018-05-09T07:12:59.677Z,26.10
2018-05-09T07:13:59.686Z,26.12
2018-05-09T07:14:59.694Z,25.51
2018-05-09T07:15:59.700Z,26.12
2018-05-09T07:16:59.702Z,26.85
2018-05-09T07:17:59.712Z,27.62
2018-05-09T07:18:59.719Z,26.89
2018-05-09T07:19:59.726Z,26.80
2018-05-09T07:20:59.732Z,25.72
2018-05-09T07:21:59.738Z,24.85
2018-05-09T07:22:59.817Z,24.88
2018-05-09T07:23:59.753Z,25.57
2018-05-09T07:24:59.754Z,25.95
2018-05-09T07:25:59.770Z,26.02
2018-05-09T07:26:59.775Z,26.82
2018-05-09T07:27:59.782Z,27.21
2018-05-09T07:28:59.787Z,27.19
2018-05-09T07:29:59.796Z,26.17
2018-05-09T07:30:59.800Z,26.37
2018-05-09T07:31:59.808Z,25.69
2018-05-09T07:32:59.814Z,24.93
2018-05-09T07:33:59.821Z,24.69
2018-05-09T07:34:59.831Z,25.36
2018-05-09T07:35:59.835Z,26.28
2018-05-09T07:36:59.845Z,26.87
2018-05-09T07:37:59.852Z,26.01
2018-05-09T07:38:59.859Z,25.05
2018-05-09T07:39:59.867Z,25.06
2018-05-09T07:40:59.874Z,24.96
2018-05-09T07:41:59.884Z,25.24
2018-05-09T07:42:59.888Z,25.38
2018-05-09T07:43:59.895Z,25.27
2018-05-09T07:44:59.903Z,25.64
2018-05-09T07:45:59.912Z,25.08
2018-05-09T07:46:59.917Z,25.15
2018-05-09T07:48:00.012Z,25.51
2018-05-09T07:48:59.941Z,25.65
2018-05-09T07:49:59.939Z,25.88
2018-05-09T07:50:59.955Z,25.54
2018-05-09T07:51:59.956Z,25.08
2018-05-09T07:52:59.963Z,26.10
2018-05-09T07:53:59.974Z,26.39
2018-05-09T07:54:59.980Z,27.32
2018-05-09T07:55:59.990Z,27.87
2018-05-09T07:56:59.996Z,28.33
2018-05-09T07:58:00.012Z,26.40
2018-05-09T07:59:00.012Z,26.26
2018-05-09T08:00:00.021Z,25.80
2018-05-09T08:01:00.031Z,26.58
2018-05-09T08:02:00.035Z,27.40
2018-05-09T08:03:00.045Z,27.92
2018-05-09T08:04:00.053Z,27.81
2018-05-09T08:05:00.063Z,27.41
2018-05-09T08:06:00.171Z,27.10
2018-05-09T08:07:00.077Z,27.27
2018-05-09T08:08:00.090Z,26.82
2018-05-09T08:09:00.095Z,26.63
2018-05-09T08:10:00.105Z,26.52
2018-05-09T08:11:00.157Z,26.80
2018-05-09T08:12:00.125Z,27.02
2018-05-09T08:13:00.131Z,26.80
2018-05-09T08:14:00.147Z,26.12
2018-05-09T08:15:00.152Z,25.85
2018-05-09T08:16:00.163Z,26.72
2018-05-09T08:17:00.171Z,26.29
2018-05-09T08:18:00.178Z,27.03
2018-05-09T08:19:00.191Z,27.74
2018-05-09T08:20:00.197Z,26.80
2018-05-09T08:21:00.204Z,27.24
2018-05-09T08:22:00.214Z,27.28
2018-05-09T08:23:00.262Z,27.03
2018-05-09T08:24:00.232Z,26.80
2018-05-09T08:25:00.242Z,27.57
2018-05-09T08:26:00.266Z,28.39
2018-05-09T08:27:00.266Z,28.62
2018-05-09T08:28:00.265Z,28.46
2018-05-09T08:29:00.290Z,28.59
2018-05-09T08:30:00.288Z,28.89
2018-05-09T08:31:00.300Z,28.95
2018-05-09T08:32:00.308Z,29.21
2018-05-09T08:33:00.315Z,28.88
2018-05-09T08:34:00.325Z,29.51
2018-05-09T08:35:00.338Z,28.67
2018-05-09T08:36:00.349Z,28.83
2018-05-09T08:37:00.355Z,28.54
2018-05-09T08:38:00.365Z,27.92
2018-05-09T08:39:00.383Z,27.22
2018-05-09T08:40:00.389Z,27.22
2018-05-09T08:41:00.399Z,28.04
2018-05-09T08:42:00.407Z,27.77
2018-05-09T08:43:00.417Z,27.77
2018-05-09T08:44:00.528Z,27.78
2018-05-09T08:45:00.439Z,27.25
2018-05-09T08:46:00.446Z,27.28
2018-05-09T08:47:00.457Z,27.25
2018-05-09T08:48:00.467Z,27.62
2018-05-09T08:49:00.485Z,27.54
2018-05-09T08:50:00.492Z,27.65
2018-05-09T08:51:00.498Z,28.36
2018-05-09T08:52:00.509Z,29.11
2018-05-09T08:53:00.516Z,29.09
2018-05-09T08:54:00.523Z,29.04
2018-05-09T08:55:00.543Z,29.23
2018-05-09T08:56:00.542Z,28.48
2018-05-09T08:57:00.554Z,28.66
2018-05-09T08:58:00.564Z,28.00
2018-05-09T08:59:00.640Z,27.88
2018-05-09T09:00:00.590Z,27.55
2018-05-09T09:01:00.595Z,27.13
2018-05-09T09:02:00.600Z,27.21
2018-05-09T09:03:00.608Z,27.43
2018-05-09T09:04:00.617Z,26.76
2018-05-09T09:05:00.626Z,25.98
2018-05-09T09:06:00.634Z,25.87
2018-05-09T09:07:00.657Z,25.42
2018-05-09T09:08:00.647Z,24.84
2018-05-09T09:09:00.653Z,24.95
2018-05-09T09:10:00.664Z,24.45
2018-05-09T09:11:00.678Z,24.60
2018-05-09T09:12:00.677Z,24.60
2018-05-09T09:13:00.685Z,24.78
2018-05-09T09:14:00.715Z,24.91
2018-05-09T09:15:00.695Z,25.21
2018-05-09T09:16:00.700Z,25.13
2018-05-09T09:17:00.706Z,25.32
2018-05-09T09:18:00.715Z,25.05
2018-05-09T09:19:00.729Z,25.10
2018-05-09T09:20:00.725Z,24.91
2018-05-09T09:21:00.732Z,24.95
2018-05-09T09:22:00.738Z,25.14
2018-05-09T09:23:00.748Z,25.18
2018-05-09T09:24:00.747Z,25.10
2018-05-09T09:25:00.755Z,25.15
2018-05-09T09:26:00.761Z,25.13
2018-05-09T09:27:00.769Z,24.93
2018-05-09T09:28:00.770Z,24.90
2018-05-09T09:29:00.770Z,25.10
2018-05-09T09:30:00.784Z,25.08
2018-05-09T09:31:00.784Z,25.08
2018-05-09T09:32:00.791Z,25.27
2018-05-09T09:33:00.793Z,25.27
2018-05-09T09:34:00.808Z,25.38
2018-05-09T09:35:00.804Z,25.39
2018-05-09T09:36:00.813Z,25.45
2018-05-09T09:37:00.820Z,25.47
2018-05-09T09:38:00.823Z,25.36
2018-05-09T09:39:00.827Z,25.50
2018-05-09T09:40:00.832Z,25.58
2018-05-09T09:41:00.838Z,25.73
2018-05-09T09:42:00.843Z,25.36
2018-05-09T09:43:00.843Z,25.43
2018-05-09T09:44:00.857Z,25.35
2018-05-09T09:45:00.862Z,25.45
2018-05-09T09:46:00.882Z,25.47
2018-05-09T09:47:00.876Z,25.47
2018-05-09T09:48:00.875Z,25.54
2018-05-09T09:49:00.882Z,25.58
2018-05-09T09:50:00.884Z,25.54
2018-05-09T09:51:00.919Z,25.38
2018-05-09T09:52:00.897Z,25.51
2018-05-09T09:53:00.898Z,25.64
2018-05-09T09:54:00.904Z,25.72
2018-05-09T09:55:00.910Z,25.77
2018-05-09T09:56:00.912Z,25.76
2018-05-09T09:57:00.918Z,25.69
2018-05-09T09:58:00.926Z,25.55
2018-05-09T09:59:00.929Z,25.76
2018-05-09T10:00:00.931Z,25.94
2018-05-09T10:01:00.970Z,25.99
2018-05-09T10:02:00.944Z,26.17
2018-05-09T10:03:00.950Z,26.15
2018-05-09T10:04:00.955Z,26.20
2018-05-09T10:05:00.963Z,26.25
2018-05-09T10:06:00.963Z,26.48
2018-05-09T10:07:00.962Z,26.33
2018-05-09T10:08:00.999Z,26.36
2018-05-09T10:09:00.975Z,26.12
2018-05-09T10:10:00.982Z,26.17
2018-05-09T10:11:00.986Z,26.13
2018-05-09T10:12:00.991Z,26.33
2018-05-09T10:13:00.997Z,26.35
2018-05-09T10:14:01.001Z,26.29
2018-05-09T10:15:01.009Z,26.54
2018-05-09T10:16:01.017Z,26.70
2018-05-09T10:17:01.018Z,26.84
2018-05-09T10:18:01.024Z,26.70
2018-05-09T10:19:01.035Z,26.65
2018-05-09T10:20:01.030Z,26.50
2018-05-09T10:21:01.039Z,26.44
2018-05-09T10:22:01.048Z,26.54
2018-05-09T10:23:01.048Z,26.70
2018-05-09T10:24:01.123Z,26.73
2018-05-09T10:25:01.059Z,26.63
2018-05-09T10:26:01.087Z,26.69
2018-05-09T10:27:01.073Z,26.60
2018-05-09T10:28:01.084Z,26.55
2018-05-09T10:29:01.086Z,26.52
2018-05-09T10:30:01.090Z,26.15
2018-05-09T10:31:01.092Z,26.40
2018-05-09T10:32:01.096Z,26.52
2018-05-09T10:33:01.140Z,26.58
2018-05-09T10:34:02.978Z,26.88
2018-05-09T10:35:01.214Z,26.84
2018-05-09T10:36:01.356Z,26.95
2018-05-09T10:37:01.126Z,26.91
2018-05-09T10:38:01.523Z,26.94
2018-05-09T10:39:01.146Z,26.85
2018-05-09T10:40:01.242Z,26.85
2018-05-09T10:41:01.289Z,26.67
2018-05-09T10:43:01.185Z,27.03
2018-05-09T10:44:01.161Z,27.19
2018-05-09T10:45:01.318Z,27.06
2018-05-09T10:46:01.169Z,27.02
2018-05-09T10:47:01.175Z,27.07
2018-05-09T10:48:01.278Z,27.06
2018-05-09T10:49:02.172Z,26.84
2018-05-09T10:50:01.205Z,26.99
2018-05-09T10:51:01.257Z,27.13
2018-05-09T10:52:01.667Z,26.91
2018-05-09T10:53:01.393Z,26.69
2018-05-09T10:54:01.578Z,26.94
2018-05-09T10:55:01.520Z,27.19
2018-05-09T10:56:01.489Z,27.22
2018-05-09T10:57:01.228Z,27.21
2018-05-09T10:58:01.235Z,27.17
2018-05-09T10:59:01.239Z,27.02
2018-05-09T11:00:01.249Z,27.07
2018-05-09T11:01:01.259Z,27.22
2018-05-09T11:02:01.259Z,27.19
2018-05-09T11:03:01.263Z,27.34
2018-05-09T11:04:01.266Z,27.21
2018-05-09T11:05:01.303Z,27.37
2018-05-09T11:06:01.278Z,27.54
2018-05-09T11:07:01.303Z,27.40
2018-05-09T11:08:01.971Z,27.31
2018-05-09T11:09:01.294Z,27.00
2018-05-09T11:10:01.304Z,27.00
2018-05-09T11:11:01.304Z,27.19
2018-05-09T11:12:01.323Z,27.03
2018-05-09T11:13:01.318Z,26.91
2018-05-09T11:14:01.323Z,26.84
2018-05-09T11:15:01.328Z,26.97
2018-05-09T11:16:01.334Z,26.89
2018-05-09T11:17:01.352Z,26.67
2018-05-09T11:18:01.345Z,26.82
2018-05-09T11:19:01.350Z,26.77
2018-05-09T11:20:01.353Z,26.82
2018-05-09T11:21:01.360Z,26.87
2018-05-09T11:22:01.372Z,26.84
2018-05-09T11:23:01.370Z,26.65
2018-05-09T11:24:01.375Z,26.57
2018-05-09T11:25:01.387Z,26.62
2018-05-09T11:26:01.385Z,26.72
2018-05-09T11:27:01.392Z,26.99
2018-05-09T11:28:01.398Z,27.21
2018-05-09T11:29:01.405Z,27.29
2018-05-09T11:30:01.409Z,27.59
2018-05-09T11:31:01.413Z,27.69
2018-05-09T11:32:01.416Z,27.60
2018-05-09T11:33:01.424Z,27.85
2018-05-09T11:34:01.433Z,28.03
2018-05-09T11:35:01.433Z,28.14
2018-05-09T11:36:01.443Z,27.74
2018-05-09T11:37:01.447Z,27.65
2018-05-09T11:38:01.454Z,27.32
2018-05-09T11:39:01.459Z,27.44
2018-05-09T11:40:01.466Z,27.57
2018-05-09T11:41:01.472Z,27.51
2018-05-09T11:42:01.481Z,27.37
2018-05-09T11:43:01.481Z,27.22
2018-05-09T11:44:01.488Z,27.27
2018-05-09T11:45:01.495Z,27.41
2018-05-09T11:46:01.506Z,27.32
2018-05-09T11:47:01.504Z,27.62
2018-05-09T11:48:01.510Z,27.50
2018-05-09T11:49:01.520Z,27.49
2018-05-09T11:50:01.520Z,27.55
2018-05-09T11:51:01.529Z,27.57
2018-05-09T11:52:01.533Z,27.62
2018-05-09T11:53:01.546Z,27.54
2018-05-09T11:54:01.545Z,27.27
2018-05-09T11:55:01.552Z,27.43
2018-05-09T11:56:01.559Z,27.54
2018-05-09T11:57:01.563Z,27.44
2018-05-09T11:58:01.570Z,27.22
2018-05-09T11:59:01.575Z,27.03
2018-05-09T12:00:01.582Z,26.92
2018-05-09T12:01:01.591Z,27.02
2018-05-09T12:02:01.596Z,27.10
2018-05-09T12:03:01.600Z,27.22
2018-05-09T12:04:01.602Z,27.60
2018-05-09T12:05:01.608Z,27.55
2018-05-09T12:06:01.619Z,27.57
2018-05-09T12:07:01.621Z,27.66
2018-05-09T12:08:01.624Z,27.75
2018-05-09T12:09:01.635Z,27.79
2018-05-09T12:10:01.637Z,27.87
2018-05-09T12:11:01.642Z,28.02
2018-05-09T12:12:01.646Z,28.19
2018-05-09T12:13:01.657Z,28.07
2018-05-09T12:14:01.658Z,28.07
2018-05-09T12:15:01.663Z,27.72
2018-05-09T12:16:01.677Z,27.55
2018-05-09T12:17:01.680Z,27.74
2018-05-09T12:18:01.681Z,27.82
2018-05-09T12:19:01.687Z,27.84
2018-05-09T12:20:01.700Z,27.82
2018-05-09T12:21:01.699Z,27.77
2018-05-09T12:22:01.710Z,27.43
2018-05-09T12:23:01.710Z,27.55
2018-05-09T12:24:01.721Z,27.74
2018-05-09T12:25:01.722Z,27.82
2018-05-09T12:26:01.729Z,27.67
2018-05-09T12:27:01.734Z,27.84
2018-05-09T12:28:01.739Z,27.88
2018-05-09T12:29:01.745Z,27.75
2018-05-09T12:30:01.754Z,27.85
2018-05-09T12:31:01.757Z,27.99
2018-05-09T12:32:01.772Z,27.93
2018-05-09T12:33:01.772Z,28.07
2018-05-09T12:34:01.779Z,27.96
2018-05-09T12:35:01.784Z,27.97
2018-05-09T12:36:01.788Z,28.24
2018-05-09T12:37:01.793Z,28.36
2018-05-09T12:38:01.797Z,28.36
2018-05-09T12:39:01.807Z,28.51
2018-05-09T12:40:01.814Z,28.37
2018-05-09T12:41:01.843Z,28.54
2018-05-09T12:42:01.841Z,28.55
2018-05-09T12:43:01.831Z,28.22
2018-05-09T12:44:01.839Z,27.78
2018-05-09T12:45:01.844Z,27.88
2018-05-09T12:46:01.850Z,27.88
2018-05-09T12:47:01.856Z,27.67
2018-05-09T12:48:01.862Z,27.51
2018-05-09T12:49:01.869Z,27.49
2018-05-09T12:50:01.875Z,27.31
2018-05-09T12:51:01.877Z,27.54
2018-05-09T12:52:09.533Z,27.70
2018-05-09T12:53:55.315Z,27.57
2018-05-09T12:54:55.295Z,27.50